sensor_id;sensor_type;location;lat;lon;timestamp;temperature;humidity
18703;DHT22;9481;48.796;9.210;2023-02-22T00:01:30;15.00;39.90
18703;DHT22;9481;48.796;9.210;2023-02-22T00:04:06;15.00;40.00
18703;DHT22;9481;48.796;9.210;2023-02-22T00:06:32;14.90;40.20
18703;DHT22;9481;48.796;9.210;2023-02-22T00:08:58;14.90;40.00
18703;DHT22;9481;48.796;9.210;2023-02-22T00:11:26;14.90;40.10
18703;DHT22;9481;48.796;9.210;2023-02-22T00:13:52;14.90;40.10
18703;DHT22;9481;48.796;9.210;2023-02-22T00:16:22;14.90;40.30
18703;DHT22;9481;48.796;9.210;2023-02-22T00:18:50;14.90;40.30
18703;DHT22;9481;48.796;9.210;2023-02-22T00:21:16;14.80;40.30
18703;DHT22;9481;48.796;9.210;2023-02-22T00:23:44;14.80;40.40
18703;DHT22;9481;48.796;9.210;2023-02-22T00:26:21;14.80;40.50
18703;DHT22;9481;48.796;9.210;2023-02-22T00:28:50;14.80;40.60
18703;DHT22;9481;48.796;9.210;2023-02-22T00:31:17;14.80;40.60
18703;DHT22;9481;48.796;9.210;2023-02-22T00:33:43;14.80;40.60
18703;DHT22;9481;48.796;9.210;2023-02-22T00:36:10;14.80;40.60
18703;DHT22;9481;48.796;9.210;2023-02-22T00:38:37;14.80;40.60
18703;DHT22;9481;48.796;9.210;2023-02-22T00:41:04;14.80;40.70
18703;DHT22;9481;48.796;9.210;2023-02-22T00:43:30;14.80;40.60
18703;DHT22;9481;48.796;9.210;2023-02-22T00:45:55;14.80;40.70
18703;DHT22;9481;48.796;9.210;2023-02-22T00:48:22;14.80;40.80
18703;DHT22;9481;48.796;9.210;2023-02-22T00:50:47;14.80;40.80
18703;DHT22;9481;48.796;9.210;2023-02-22T00:53:14;14.80;40.80
18703;DHT22;9481;48.796;9.210;2023-02-22T00:55:40;14.70;40.80
18703;DHT22;9481;48.796;9.210;2023-02-22T00:58:06;14.70;40.80
18703;DHT22;9481;48.796;9.210;2023-02-22T01:00:38;14.70;40.80
18703;DHT22;9481;48.796;9.210;2023-02-22T01:03:07;14.70;41.10
18703;DHT22;9481;48.796;9.210;2023-02-22T01:05:35;14.70;40.90
18703;DHT22;9481;48.796;9.210;2023-02-22T01:08:03;14.60;40.80
18703;DHT22;9481;48.796;9.210;2023-02-22T01:10:31;14.60;40.90
18703;DHT22;9481;48.796;9.210;2023-02-22T01:12:58;14.50;40.80
18703;DHT22;9481;48.796;9.210;2023-02-22T01:15:27;14.50;40.90
18703;DHT22;9481;48.796;9.210;2023-02-22T01:17:56;14.50;41.10
18703;DHT22;9481;48.796;9.210;2023-02-22T01:20:23;14.50;41.10
18703;DHT22;9481;48.796;9.210;2023-02-22T01:22:51;14.40;41.10
18703;DHT22;9481;48.796;9.210;2023-02-22T01:25:23;14.40;41.10
18703;DHT22;9481;48.796;9.210;2023-02-22T01:27:52;14.40;41.40
18703;DHT22;9481;48.796;9.210;2023-02-22T01:30:22;14.40;41.30
18703;DHT22;9481;48.796;9.210;2023-02-22T01:32:50;14.30;41.30
18703;DHT22;9481;48.796;9.210;2023-02-22T01:35:23;14.30;41.30
18703;DHT22;9481;48.796;9.210;2023-02-22T01:37:52;14.30;41.50
18703;DHT22;9481;48.796;9.210;2023-02-22T01:40:24;14.20;41.40
18703;DHT22;9481;48.796;9.210;2023-02-22T01:42:55;14.30;41.80
18703;DHT22;9481;48.796;9.210;2023-02-22T01:48:11;14.20;41.80
18703;DHT22;9481;48.796;9.210;2023-02-22T01:51:27;14.20;42.00
18703;DHT22;9481;48.796;9.210;2023-02-22T01:53:57;14.20;41.70
18703;DHT22;9481;48.796;9.210;2023-02-22T01:56:27;14.20;41.90
18703;DHT22;9481;48.796;9.210;2023-02-22T01:59:07;14.10;41.60
18703;DHT22;9481;48.796;9.210;2023-02-22T02:01:37;14.10;42.00
18703;DHT22;9481;48.796;9.210;2023-02-22T02:04:07;14.00;41.60
18703;DHT22;9481;48.796;9.210;2023-02-22T02:06:36;14.00;41.70
18703;DHT22;9481;48.796;9.210;2023-02-22T02:09:24;14.00;41.70
18703;DHT22;9481;48.796;9.210;2023-02-22T02:11:55;13.90;42.20
18703;DHT22;9481;48.796;9.210;2023-02-22T02:14:25;13.90;41.70
18703;DHT22;9481;48.796;9.210;2023-02-22T02:16:52;13.90;41.80
18703;DHT22;9481;48.796;9.210;2023-02-22T02:34:04;13.80;42.30
18703;DHT22;9481;48.796;9.210;2023-02-22T02:40:09;13.70;42.10
18703;DHT22;9481;48.796;9.210;2023-02-22T02:42:42;13.70;42.70
18703;DHT22;9481;48.796;9.210;2023-02-22T02:45:20;13.60;42.20
18703;DHT22;9481;48.796;9.210;2023-02-22T02:47:54;13.50;42.20
18703;DHT22;9481;48.796;9.210;2023-02-22T02:50:30;13.60;42.30
18703;DHT22;9481;48.796;9.210;2023-02-22T02:53:02;13.50;42.40
18703;DHT22;9481;48.796;9.210;2023-02-22T02:55:30;13.50;42.20
18703;DHT22;9481;48.796;9.210;2023-02-22T02:58:02;13.50;42.20
18703;DHT22;9481;48.796;9.210;2023-02-22T03:00:32;13.40;42.10
18703;DHT22;9481;48.796;9.210;2023-02-22T03:09:44;13.40;42.50
18703;DHT22;9481;48.796;9.210;2023-02-22T03:12:48;13.40;42.30
18703;DHT22;9481;48.796;9.210;2023-02-22T03:18:27;13.30;42.40
18703;DHT22;9481;48.796;9.210;2023-02-22T03:26:47;13.20;42.40
18703;DHT22;9481;48.796;9.210;2023-02-22T03:29:20;13.20;42.60
18703;DHT22;9481;48.796;9.210;2023-02-22T03:31:52;13.10;42.10
18703;DHT22;9481;48.796;9.210;2023-02-22T03:34:32;13.10;42.30
18703;DHT22;9481;48.796;9.210;2023-02-22T03:37:18;13.00;42.30
18703;DHT22;9481;48.796;9.210;2023-02-22T03:39:49;13.00;42.60
18703;DHT22;9481;48.796;9.210;2023-02-22T03:42:21;13.00;42.20
18703;DHT22;9481;48.796;9.210;2023-02-22T03:44:52;13.00;42.40
18703;DHT22;9481;48.796;9.210;2023-02-22T03:47:29;12.90;42.30
18703;DHT22;9481;48.796;9.210;2023-02-22T03:50:14;12.90;42.60
18703;DHT22;9481;48.796;9.210;2023-02-22T03:52:43;12.90;42.60
18703;DHT22;9481;48.796;9.210;2023-02-22T03:55:12;12.90;42.40
18703;DHT22;9481;48.796;9.210;2023-02-22T03:57:43;12.80;42.40
18703;DHT22;9481;48.796;9.210;2023-02-22T04:00:20;12.80;42.50
18703;DHT22;9481;48.796;9.210;2023-02-22T04:02:47;12.80;42.60
18703;DHT22;9481;48.796;9.210;2023-02-22T04:05:13;12.70;42.40
18703;DHT22;9481;48.796;9.210;2023-02-22T04:07:40;12.70;42.40
18703;DHT22;9481;48.796;9.210;2023-02-22T04:10:07;12.70;42.50
18703;DHT22;9481;48.796;9.210;2023-02-22T04:12:34;12.60;42.50
18703;DHT22;9481;48.796;9.210;2023-02-22T04:15:01;12.60;42.60
18703;DHT22;9481;48.796;9.210;2023-02-22T04:17:27;12.60;42.60
18703;DHT22;9481;48.796;9.210;2023-02-22T04:19:53;12.60;42.70
18703;DHT22;9481;48.796;9.210;2023-02-22T04:22:19;12.50;42.60
18703;DHT22;9481;48.796;9.210;2023-02-22T04:24:44;12.50;42.70
18703;DHT22;9481;48.796;9.210;2023-02-22T04:27:11;12.50;42.70
18703;DHT22;9481;48.796;9.210;2023-02-22T04:29:36;12.50;42.80
18703;DHT22;9481;48.796;9.210;2023-02-22T04:32:02;12.50;42.80
18703;DHT22;9481;48.796;9.210;2023-02-22T04:34:28;12.50;42.80
18703;DHT22;9481;48.796;9.210;2023-02-22T04:36:54;12.40;42.80
18703;DHT22;9481;48.796;9.210;2023-02-22T04:39:19;12.40;42.80
18703;DHT22;9481;48.796;9.210;2023-02-22T04:41:45;12.40;42.90
18703;DHT22;9481;48.796;9.210;2023-02-22T04:44:12;12.40;42.90
18703;DHT22;9481;48.796;9.210;2023-02-22T04:46:38;12.40;42.90
18703;DHT22;9481;48.796;9.210;2023-02-22T04:49:03;12.40;42.90
18703;DHT22;9481;48.796;9.210;2023-02-22T04:51:29;12.40;43.00
18703;DHT22;9481;48.796;9.210;2023-02-22T04:53:55;12.40;43.00
18703;DHT22;9481;48.796;9.210;2023-02-22T04:56:21;12.30;43.00
18703;DHT22;9481;48.796;9.210;2023-02-22T04:58:47;12.30;43.00
18703;DHT22;9481;48.796;9.210;2023-02-22T05:01:14;12.30;43.00
18703;DHT22;9481;48.796;9.210;2023-02-22T05:03:41;12.30;43.00
18703;DHT22;9481;48.796;9.210;2023-02-22T05:06:07;12.30;43.00
18703;DHT22;9481;48.796;9.210;2023-02-22T05:08:33;12.30;43.10
18703;DHT22;9481;48.796;9.210;2023-02-22T05:10:59;12.20;43.10
18703;DHT22;9481;48.796;9.210;2023-02-22T05:13:25;12.20;43.10
18703;DHT22;9481;48.796;9.210;2023-02-22T05:15:51;12.20;43.10
18703;DHT22;9481;48.796;9.210;2023-02-22T05:18:17;12.20;43.10
18703;DHT22;9481;48.796;9.210;2023-02-22T05:20:43;12.20;43.20
18703;DHT22;9481;48.796;9.210;2023-02-22T05:23:08;12.20;43.20
18703;DHT22;9481;48.796;9.210;2023-02-22T05:25:34;12.20;43.20
18703;DHT22;9481;48.796;9.210;2023-02-22T05:28:02;12.20;43.20
18703;DHT22;9481;48.796;9.210;2023-02-22T05:30:35;12.10;43.20
18703;DHT22;9481;48.796;9.210;2023-02-22T05:33:03;12.10;43.10
18703;DHT22;9481;48.796;9.210;2023-02-22T05:35:30;12.10;43.10
18703;DHT22;9481;48.796;9.210;2023-02-22T05:37:56;12.00;43.10
18703;DHT22;9481;48.796;9.210;2023-02-22T05:40:24;12.00;43.20
18703;DHT22;9481;48.796;9.210;2023-02-22T05:42:52;12.00;43.50
18703;DHT22;9481;48.796;9.210;2023-02-22T05:45:20;12.00;43.30
18703;DHT22;9481;48.796;9.210;2023-02-22T05:47:47;12.00;43.40
18703;DHT22;9481;48.796;9.210;2023-02-22T05:50:13;11.90;43.30
18703;DHT22;9481;48.796;9.210;2023-02-22T05:52:40;11.90;43.40
18703;DHT22;9481;48.796;9.210;2023-02-22T05:55:07;11.90;43.50
18703;DHT22;9481;48.796;9.210;2023-02-22T05:57:35;11.90;43.50
18703;DHT22;9481;48.796;9.210;2023-02-22T06:00:02;11.90;43.50
18703;DHT22;9481;48.796;9.210;2023-02-22T06:02:33;11.80;43.50
18703;DHT22;9481;48.796;9.210;2023-02-22T06:04:59;11.80;43.70
18703;DHT22;9481;48.796;9.210;2023-02-22T06:07:25;11.80;43.60
18703;DHT22;9481;48.796;9.210;2023-02-22T06:09:51;11.80;43.70
18703;DHT22;9481;48.796;9.210;2023-02-22T06:12:18;11.80;43.70
18703;DHT22;9481;48.796;9.210;2023-02-22T06:14:44;11.80;43.60
18703;DHT22;9481;48.796;9.210;2023-02-22T06:17:14;11.80;43.70
18703;DHT22;9481;48.796;9.210;2023-02-22T06:19:40;11.80;43.80
18703;DHT22;9481;48.796;9.210;2023-02-22T06:22:06;11.80;43.80
18703;DHT22;9481;48.796;9.210;2023-02-22T06:24:32;11.80;43.90
18703;DHT22;9481;48.796;9.210;2023-02-22T06:27:00;11.80;43.90
18703;DHT22;9481;48.796;9.210;2023-02-22T06:29:27;11.80;43.90
18703;DHT22;9481;48.796;9.210;2023-02-22T06:31:54;11.80;43.90
18703;DHT22;9481;48.796;9.210;2023-02-22T06:34:20;11.80;44.00
18703;DHT22;9481;48.796;9.210;2023-02-22T06:36:47;11.80;44.00
18703;DHT22;9481;48.796;9.210;2023-02-22T06:39:15;11.80;44.10
18703;DHT22;9481;48.796;9.210;2023-02-22T06:41:42;11.80;44.10
18703;DHT22;9481;48.796;9.210;2023-02-22T06:44:09;11.70;44.00
18703;DHT22;9481;48.796;9.210;2023-02-22T06:46:36;11.70;44.10
18703;DHT22;9481;48.796;9.210;2023-02-22T06:49:02;11.70;44.10
18703;DHT22;9481;48.796;9.210;2023-02-22T06:51:29;11.70;44.10
18703;DHT22;9481;48.796;9.210;2023-02-22T06:53:59;11.80;44.30
18703;DHT22;9481;48.796;9.210;2023-02-22T06:56:25;11.70;44.20
18703;DHT22;9481;48.796;9.210;2023-02-22T06:58:51;11.80;44.40
18703;DHT22;9481;48.796;9.210;2023-02-22T07:01:16;11.80;44.40
18703;DHT22;9481;48.796;9.210;2023-02-22T07:03:42;11.80;44.40
18703;DHT22;9481;48.796;9.210;2023-02-22T07:06:08;11.80;44.40
18703;DHT22;9481;48.796;9.210;2023-02-22T07:08:35;11.80;44.50
18703;DHT22;9481;48.796;9.210;2023-02-22T07:11:01;11.90;44.60
18703;DHT22;9481;48.796;9.210;2023-02-22T07:13:27;11.90;44.60
18703;DHT22;9481;48.796;9.210;2023-02-22T07:15:53;11.90;44.70
18703;DHT22;9481;48.796;9.210;2023-02-22T07:18:19;12.00;44.60
18703;DHT22;9481;48.796;9.210;2023-02-22T07:20:45;12.00;44.70
18703;DHT22;9481;48.796;9.210;2023-02-22T07:23:14;12.10;44.80
18703;DHT22;9481;48.796;9.210;2023-02-22T07:25:40;12.20;45.00
18703;DHT22;9481;48.796;9.210;2023-02-22T07:28:07;12.30;44.90
18703;DHT22;9481;48.796;9.210;2023-02-22T07:30:35;12.40;44.90
18703;DHT22;9481;48.796;9.210;2023-02-22T07:33:06;12.50;44.90
18703;DHT22;9481;48.796;9.210;2023-02-22T07:35:35;12.60;44.90
18703;DHT22;9481;48.796;9.210;2023-02-22T07:38:04;12.70;44.90
18703;DHT22;9481;48.796;9.210;2023-02-22T07:40:33;12.80;44.70
18703;DHT22;9481;48.796;9.210;2023-02-22T07:43:02;12.90;44.70
18703;DHT22;9481;48.796;9.210;2023-02-22T07:45:31;12.90;44.50
18703;DHT22;9481;48.796;9.210;2023-02-22T07:48:00;13.00;44.60
18703;DHT22;9481;48.796;9.210;2023-02-22T07:50:29;13.00;44.50
18703;DHT22;9481;48.796;9.210;2023-02-22T07:52:57;13.10;44.50
18703;DHT22;9481;48.796;9.210;2023-02-22T07:55:29;13.10;44.50
18703;DHT22;9481;48.796;9.210;2023-02-22T07:57:59;13.20;44.50
18703;DHT22;9481;48.796;9.210;2023-02-22T08:00:31;13.30;44.60
18703;DHT22;9481;48.796;9.210;2023-02-22T08:03:05;13.30;44.60
18703;DHT22;9481;48.796;9.210;2023-02-22T08:05:34;13.40;44.80
18703;DHT22;9481;48.796;9.210;2023-02-22T08:08:02;13.40;44.70
18703;DHT22;9481;48.796;9.210;2023-02-22T08:10:29;13.50;44.80
18703;DHT22;9481;48.796;9.210;2023-02-22T08:12:57;13.60;45.00
18703;DHT22;9481;48.796;9.210;2023-02-22T08:15:32;13.70;45.20
18703;DHT22;9481;48.796;9.210;2023-02-22T08:18:02;13.80;45.50
18703;DHT22;9481;48.796;9.210;2023-02-22T08:20:37;14.00;45.50
18703;DHT22;9481;48.796;9.210;2023-02-22T08:23:05;14.20;45.30
18703;DHT22;9481;48.796;9.210;2023-02-22T08:25:31;14.40;45.30
18703;DHT22;9481;48.796;9.210;2023-02-22T08:28:03;14.60;45.20
18703;DHT22;9481;48.796;9.210;2023-02-22T08:30:34;14.70;45.00
18703;DHT22;9481;48.796;9.210;2023-02-22T08:33:02;14.90;44.70
18703;DHT22;9481;48.796;9.210;2023-02-22T08:35:29;15.10;44.50
18703;DHT22;9481;48.796;9.210;2023-02-22T08:38:02;15.30;44.50
18703;DHT22;9481;48.796;9.210;2023-02-22T08:40:32;15.50;44.30
18703;DHT22;9481;48.796;9.210;2023-02-22T08:42:59;15.70;44.20
18703;DHT22;9481;48.796;9.210;2023-02-22T08:45:25;15.80;44.10
18703;DHT22;9481;48.796;9.210;2023-02-22T08:47:52;16.00;44.00
18703;DHT22;9481;48.796;9.210;2023-02-22T08:50:21;16.10;44.00
18703;DHT22;9481;48.796;9.210;2023-02-22T08:52:50;16.30;44.00
18703;DHT22;9481;48.796;9.210;2023-02-22T08:55:21;16.40;43.70
18703;DHT22;9481;48.796;9.210;2023-02-22T08:57:49;16.60;43.20
18703;DHT22;9481;48.796;9.210;2023-02-22T09:00:16;16.70;43.10
18703;DHT22;9481;48.796;9.210;2023-02-22T09:02:48;16.80;43.10
18703;DHT22;9481;48.796;9.210;2023-02-22T09:05:15;16.90;43.00
18703;DHT22;9481;48.796;9.210;2023-02-22T09:07:42;17.00;42.70
18703;DHT22;9481;48.796;9.210;2023-02-22T09:10:13;17.10;42.60
18703;DHT22;9481;48.796;9.210;2023-02-22T09:12:41;17.20;42.40
18703;DHT22;9481;48.796;9.210;2023-02-22T09:15:07;17.20;42.40
18703;DHT22;9481;48.796;9.210;2023-02-22T09:17:33;17.30;42.30
18703;DHT22;9481;48.796;9.210;2023-02-22T09:20:05;17.30;42.20
18703;DHT22;9481;48.796;9.210;2023-02-22T09:22:32;17.40;42.10
18703;DHT22;9481;48.796;9.210;2023-02-22T09:24:58;17.50;42.00
18703;DHT22;9481;48.796;9.210;2023-02-22T09:27:24;17.60;42.10
18703;DHT22;9481;48.796;9.210;2023-02-22T09:29:52;17.70;42.20
18703;DHT22;9481;48.796;9.210;2023-02-22T09:32:19;17.80;42.10
18703;DHT22;9481;48.796;9.210;2023-02-22T09:34:45;17.90;42.00
18703;DHT22;9481;48.796;9.210;2023-02-22T09:37:12;18.00;42.10
18703;DHT22;9481;48.796;9.210;2023-02-22T09:39:38;18.20;42.00
18703;DHT22;9481;48.796;9.210;2023-02-22T09:42:20;18.30;41.60
18703;DHT22;9481;48.796;9.210;2023-02-22T09:45:22;18.40;41.00
18703;DHT22;9481;48.796;9.210;2023-02-22T09:47:59;18.60;41.80
18703;DHT22;9481;48.796;9.210;2023-02-22T09:50:37;18.60;41.00
18703;DHT22;9481;48.796;9.210;2023-02-22T09:53:26;18.70;40.50
18703;DHT22;9481;48.796;9.210;2023-02-22T09:56:04;18.70;40.10
18703;DHT22;9481;48.796;9.210;2023-02-22T09:58:47;18.80;40.10
18703;DHT22;9481;48.796;9.210;2023-02-22T10:01:30;18.80;40.00
18703;DHT22;9481;48.796;9.210;2023-02-22T10:04:10;18.80;39.90
18703;DHT22;9481;48.796;9.210;2023-02-22T10:07:21;18.90;40.20
18703;DHT22;9481;48.796;9.210;2023-02-22T10:09:53;18.90;39.90
18703;DHT22;9481;48.796;9.210;2023-02-22T10:12:42;19.00;40.30
18703;DHT22;9481;48.796;9.210;2023-02-22T10:18:29;19.20;40.00
18703;DHT22;9481;48.796;9.210;2023-02-22T10:21:38;19.30;39.60
18703;DHT22;9481;48.796;9.210;2023-02-22T10:24:35;19.50;39.70
18703;DHT22;9481;48.796;9.210;2023-02-22T10:27:21;19.60;39.60
18703;DHT22;9481;48.796;9.210;2023-02-22T10:30:13;19.70;39.60
18703;DHT22;9481;48.796;9.210;2023-02-22T10:32:48;19.90;39.30
18703;DHT22;9481;48.796;9.210;2023-02-22T10:35:32;20.10;39.00
18703;DHT22;9481;48.796;9.210;2023-02-22T10:38:18;20.20;38.40
18703;DHT22;9481;48.796;9.210;2023-02-22T10:41:20;20.40;38.60
18703;DHT22;9481;48.796;9.210;2023-02-22T10:43:51;20.60;38.00
18703;DHT22;9481;48.796;9.210;2023-02-22T10:46:20;20.70;38.30
18703;DHT22;9481;48.796;9.210;2023-02-22T10:48:50;20.90;38.10
18703;DHT22;9481;48.796;9.210;2023-02-22T10:51:19;21.00;37.70
18703;DHT22;9481;48.796;9.210;2023-02-22T10:53:57;21.20;37.50
18703;DHT22;9481;48.796;9.210;2023-02-22T10:56:31;21.30;36.50
18703;DHT22;9481;48.796;9.210;2023-02-22T10:58:59;21.30;36.70
18703;DHT22;9481;48.796;9.210;2023-02-22T11:06:36;21.50;35.70
18703;DHT22;9481;48.796;9.210;2023-02-22T11:09:10;21.50;36.10
18703;DHT22;9481;48.796;9.210;2023-02-22T11:11:42;21.60;35.80
18703;DHT22;9481;48.796;9.210;2023-02-22T11:14:10;21.60;35.80
18703;DHT22;9481;48.796;9.210;2023-02-22T11:16:51;21.60;35.50
18703;DHT22;9481;48.796;9.210;2023-02-22T11:19:24;21.60;35.00
18703;DHT22;9481;48.796;9.210;2023-02-22T11:21:57;21.50;35.30
18703;DHT22;9481;48.796;9.210;2023-02-22T11:24:44;21.50;35.50
18703;DHT22;9481;48.796;9.210;2023-02-22T11:27:42;21.50;35.10
18703;DHT22;9481;48.796;9.210;2023-02-22T11:32:52;21.40;35.50
18703;DHT22;9481;48.796;9.210;2023-02-22T11:35:49;21.40;35.30
18703;DHT22;9481;48.796;9.210;2023-02-22T11:38:32;21.50;35.70
18703;DHT22;9481;48.796;9.210;2023-02-22T11:43:47;21.60;35.70
18703;DHT22;9481;48.796;9.210;2023-02-22T11:46:22;21.80;36.00
18703;DHT22;9481;48.796;9.210;2023-02-22T11:49:07;21.90;35.70
18703;DHT22;9481;48.796;9.210;2023-02-22T11:52:07;22.00;35.60
18703;DHT22;9481;48.796;9.210;2023-02-22T11:55:07;22.20;35.30
18703;DHT22;9481;48.796;9.210;2023-02-22T11:58:20;22.30;34.90
18703;DHT22;9481;48.796;9.210;2023-02-22T12:04:30;22.20;34.30
18703;DHT22;9481;48.796;9.210;2023-02-22T12:22:24;22.40;34.30
18703;DHT22;9481;48.796;9.210;2023-02-22T12:27:49;22.30;34.30
18703;DHT22;9481;48.796;9.210;2023-02-22T12:30:26;22.10;34.20
18703;DHT22;9481;48.796;9.210;2023-02-22T12:32:59;21.90;34.30
18703;DHT22;9481;48.796;9.210;2023-02-22T12:35:36;21.80;34.50
18703;DHT22;9481;48.796;9.210;2023-02-22T12:38:25;21.60;34.70
18703;DHT22;9481;48.796;9.210;2023-02-22T12:44:03;21.30;35.20
18703;DHT22;9481;48.796;9.210;2023-02-22T12:46:39;21.10;35.20
18703;DHT22;9481;48.796;9.210;2023-02-22T12:52:41;20.90;35.70
18703;DHT22;9481;48.796;9.210;2023-02-22T12:56:19;20.80;35.80
18703;DHT22;9481;48.796;9.210;2023-02-22T12:59:09;20.70;37.50
18703;DHT22;9481;48.796;9.210;2023-02-22T13:01:44;20.70;38.80
18703;DHT22;9481;48.796;9.210;2023-02-22T13:04:18;20.70;38.00
18703;DHT22;9481;48.796;9.210;2023-02-22T13:13:26;20.80;37.50
18703;DHT22;9481;48.796;9.210;2023-02-22T13:19:23;21.50;38.50
18703;DHT22;9481;48.796;9.210;2023-02-22T13:22:26;22.10;37.70
18703;DHT22;9481;48.796;9.210;2023-02-22T13:28:32;23.60;36.90
18703;DHT22;9481;48.796;9.210;2023-02-22T13:34:49;25.10;34.80
18703;DHT22;9481;48.796;9.210;2023-02-22T13:46:26;27.40;32.50
18703;DHT22;9481;48.796;9.210;2023-02-22T13:51:47;28.10;30.10
18703;DHT22;9481;48.796;9.210;2023-02-22T13:54:23;28.20;29.60
18703;DHT22;9481;48.796;9.210;2023-02-22T13:56:55;28.30;28.70
18703;DHT22;9481;48.796;9.210;2023-02-22T13:59:35;28.10;28.40
18703;DHT22;9481;48.796;9.210;2023-02-22T14:02:04;27.80;27.60
18703;DHT22;9481;48.796;9.210;2023-02-22T14:04:35;27.40;27.90
18703;DHT22;9481;48.796;9.210;2023-02-22T14:15:20;25.40;28.60
18703;DHT22;9481;48.796;9.210;2023-02-22T14:17:48;25.00;28.90
18703;DHT22;9481;48.796;9.210;2023-02-22T14:20:27;24.50;29.20
18703;DHT22;9481;48.796;9.210;2023-02-22T14:23:26;24.10;29.50
18703;DHT22;9481;48.796;9.210;2023-02-22T14:25:53;23.70;29.80
18703;DHT22;9481;48.796;9.210;2023-02-22T14:28:42;23.40;30.00
18703;DHT22;9481;48.796;9.210;2023-02-22T14:34:13;22.90;30.90
18703;DHT22;9481;48.796;9.210;2023-02-22T14:36:52;22.60;31.00
18703;DHT22;9481;48.796;9.210;2023-02-22T14:39:41;22.60;31.70
18703;DHT22;9481;48.796;9.210;2023-02-22T14:42:29;22.50;31.70
18703;DHT22;9481;48.796;9.210;2023-02-22T14:45:23;22.50;31.80
18703;DHT22;9481;48.796;9.210;2023-02-22T14:48:11;22.40;31.90
18703;DHT22;9481;48.796;9.210;2023-02-22T14:51:18;22.30;31.70
18703;DHT22;9481;48.796;9.210;2023-02-22T14:54:02;22.10;31.70
18703;DHT22;9481;48.796;9.210;2023-02-22T14:56:51;22.00;32.00
18703;DHT22;9481;48.796;9.210;2023-02-22T14:59:26;21.80;31.90
18703;DHT22;9481;48.796;9.210;2023-02-22T15:02:05;21.60;32.00
18703;DHT22;9481;48.796;9.210;2023-02-22T15:04:37;21.40;32.50
18703;DHT22;9481;48.796;9.210;2023-02-22T15:07:36;21.20;32.40
18703;DHT22;9481;48.796;9.210;2023-02-22T15:10:29;21.10;33.00
18703;DHT22;9481;48.796;9.210;2023-02-22T15:13:05;20.90;33.30
18703;DHT22;9481;48.796;9.210;2023-02-22T15:15:41;20.80;33.20
18703;DHT22;9481;48.796;9.210;2023-02-22T15:18:39;20.70;33.50
18703;DHT22;9481;48.796;9.210;2023-02-22T15:21:15;20.60;33.90
18703;DHT22;9481;48.796;9.210;2023-02-22T15:23:49;20.50;33.60
18703;DHT22;9481;48.796;9.210;2023-02-22T15:29:12;20.30;34.10
18703;DHT22;9481;48.796;9.210;2023-02-22T15:31:58;20.20;33.90
18703;DHT22;9481;48.796;9.210;2023-02-22T15:34:31;20.10;34.00
18703;DHT22;9481;48.796;9.210;2023-02-22T15:37:19;20.00;34.20
18703;DHT22;9481;48.796;9.210;2023-02-22T15:39:49;19.90;34.60
18703;DHT22;9481;48.796;9.210;2023-02-22T15:42:24;19.80;34.40
18703;DHT22;9481;48.796;9.210;2023-02-22T15:44:52;19.80;34.80
18703;DHT22;9481;48.796;9.210;2023-02-22T15:47:27;19.70;35.00
18703;DHT22;9481;48.796;9.210;2023-02-22T15:53:00;19.60;35.80
18703;DHT22;9481;48.796;9.210;2023-02-22T15:55:34;19.50;35.70
18703;DHT22;9481;48.796;9.210;2023-02-22T16:00:47;19.40;36.60
18703;DHT22;9481;48.796;9.210;2023-02-22T16:03:22;19.40;36.30
18703;DHT22;9481;48.796;9.210;2023-02-22T16:05:52;19.30;36.30
18703;DHT22;9481;48.796;9.210;2023-02-22T16:08:24;19.30;36.90
18703;DHT22;9481;48.796;9.210;2023-02-22T16:11:02;19.20;36.90
18703;DHT22;9481;48.796;9.210;2023-02-22T16:13:39;19.20;37.40
18703;DHT22;9481;48.796;9.210;2023-02-22T16:18:49;19.10;38.10
18703;DHT22;9481;48.796;9.210;2023-02-22T16:21:20;19.00;37.40
18703;DHT22;9481;48.796;9.210;2023-02-22T16:23:51;19.00;37.90
18703;DHT22;9481;48.796;9.210;2023-02-22T16:26:32;18.90;37.80
18703;DHT22;9481;48.796;9.210;2023-02-22T16:29:00;18.90;38.70
18703;DHT22;9481;48.796;9.210;2023-02-22T16:31:38;18.90;38.60
18703;DHT22;9481;48.796;9.210;2023-02-22T16:34:06;18.80;38.60
18703;DHT22;9481;48.796;9.210;2023-02-22T16:36:44;18.80;38.40
18703;DHT22;9481;48.796;9.210;2023-02-22T16:39:21;18.80;39.00
18703;DHT22;9481;48.796;9.210;2023-02-22T16:41:57;18.70;38.80
18703;DHT22;9481;48.796;9.210;2023-02-22T16:44:24;18.70;39.00
18703;DHT22;9481;48.796;9.210;2023-02-22T16:46:55;18.60;38.60
18703;DHT22;9481;48.796;9.210;2023-02-22T16:49:23;18.60;39.00
18703;DHT22;9481;48.796;9.210;2023-02-22T16:51:53;18.60;38.90
18703;DHT22;9481;48.796;9.210;2023-02-22T16:54:33;18.50;39.10
18703;DHT22;9481;48.796;9.210;2023-02-22T16:57:04;18.50;39.60
18703;DHT22;9481;48.796;9.210;2023-02-22T16:59:37;18.50;39.10
18703;DHT22;9481;48.796;9.210;2023-02-22T17:02:03;18.50;39.60
18703;DHT22;9481;48.796;9.210;2023-02-22T17:04:33;18.40;39.30
18703;DHT22;9481;48.796;9.210;2023-02-22T17:06:59;18.40;39.40
18703;DHT22;9481;48.796;9.210;2023-02-22T17:09:27;18.40;39.40
18703;DHT22;9481;48.796;9.210;2023-02-22T17:11:53;18.40;39.60
18703;DHT22;9481;48.796;9.210;2023-02-22T17:14:21;18.40;39.60
18703;DHT22;9481;48.796;9.210;2023-02-22T17:16:51;18.30;39.70
18703;DHT22;9481;48.796;9.210;2023-02-22T17:19:23;18.30;39.90
18703;DHT22;9481;48.796;9.210;2023-02-22T17:21:49;18.30;40.00
18703;DHT22;9481;48.796;9.210;2023-02-22T17:24:20;18.30;39.90
18703;DHT22;9481;48.796;9.210;2023-02-22T17:26:49;18.30;40.10
18703;DHT22;9481;48.796;9.210;2023-02-22T17:29:17;18.20;40.00
18703;DHT22;9481;48.796;9.210;2023-02-22T17:31:43;18.20;40.70
18703;DHT22;9481;48.796;9.210;2023-02-22T17:34:09;18.10;40.00
18703;DHT22;9481;48.796;9.210;2023-02-22T17:36:35;18.10;40.10
18703;DHT22;9481;48.796;9.210;2023-02-22T17:39:02;18.00;40.10
18703;DHT22;9481;48.796;9.210;2023-02-22T17:41:28;18.00;40.30
18703;DHT22;9481;48.796;9.210;2023-02-22T17:43:54;18.00;40.40
18703;DHT22;9481;48.796;9.210;2023-02-22T17:46:23;17.90;40.30
18703;DHT22;9481;48.796;9.210;2023-02-22T17:48:50;17.90;40.40
18703;DHT22;9481;48.796;9.210;2023-02-22T17:51:19;17.80;40.40
18703;DHT22;9481;48.796;9.210;2023-02-22T17:53:49;17.80;40.50
18703;DHT22;9481;48.796;9.210;2023-02-22T17:56:16;17.80;40.50
18703;DHT22;9481;48.796;9.210;2023-02-22T17:58:53;17.70;40.70
18703;DHT22;9481;48.796;9.210;2023-02-22T18:01:28;17.70;41.10
18703;DHT22;9481;48.796;9.210;2023-02-22T18:03:58;17.70;40.90
18703;DHT22;9481;48.796;9.210;2023-02-22T18:06:27;17.60;40.80
18703;DHT22;9481;48.796;9.210;2023-02-22T18:08:55;17.60;40.80
18703;DHT22;9481;48.796;9.210;2023-02-22T18:11:24;17.50;40.80
18703;DHT22;9481;48.796;9.210;2023-02-22T18:13:55;17.50;40.80
18703;DHT22;9481;48.796;9.210;2023-02-22T18:16:22;17.50;41.00
18703;DHT22;9481;48.796;9.210;2023-02-22T18:18:50;17.50;40.90
18703;DHT22;9481;48.796;9.210;2023-02-22T18:21:15;17.40;40.90
18703;DHT22;9481;48.796;9.210;2023-02-22T18:23:41;17.40;40.90
18703;DHT22;9481;48.796;9.210;2023-02-22T18:26:14;17.40;41.00
18703;DHT22;9481;48.796;9.210;2023-02-22T18:28:42;17.40;41.30